createdAt,value
2022-08-03T00:00:29.788Z,2.47
2022-08-03T00:02:56.597Z,2.28
2022-08-03T00:05:23.557Z,2.50
2022-08-03T00:07:50.438Z,3.05
2022-08-03T00:10:17.372Z,2.53
2022-08-03T00:12:44.355Z,2.15
2022-08-03T00:15:16.506Z,2.70
2022-08-03T00:17:53.259Z,2.47
2022-08-03T00:20:22.175Z,2.13
2022-08-03T00:22:49.681Z,2.10
2022-08-03T00:25:16.945Z,3.88
2022-08-03T00:27:43.805Z,1.73
2022-08-03T00:30:10.965Z,2.55
2022-08-03T00:32:38.764Z,2.47
2022-08-03T00:35:18.058Z,3.17
2022-08-03T00:37:59.271Z,2.20
2022-08-03T00:40:26.621Z,2.60
2022-08-03T00:42:56.047Z,2.22
2022-08-03T00:45:28.835Z,3.20
2022-08-03T00:47:56.273Z,2.55
2022-08-03T00:50:25.164Z,3.05
2022-08-03T00:52:54.451Z,2.30
2022-08-03T00:55:21.845Z,3.75
2022-08-03T00:57:49.586Z,2.70
2022-08-03T01:00:22.802Z,4.00
2022-08-03T01:02:50.475Z,3.63
2022-08-03T01:05:17.873Z,2.47
2022-08-03T01:08:03.316Z,3.80
2022-08-03T01:11:10.200Z,2.50
2022-08-03T01:14:18.366Z,2.33
2022-08-03T01:17:18.244Z,2.40
2022-08-03T01:20:02.123Z,2.80
2022-08-03T01:22:41.050Z,3.53
2022-08-03T01:25:58.240Z,5.50
2022-08-03T01:28:24.986Z,3.10
2022-08-03T01:30:55.591Z,2.78
2022-08-03T01:33:35.731Z,3.40
2022-08-03T01:36:09.621Z,2.83
2022-08-03T01:41:10.873Z,3.67
2022-08-03T01:44:26.756Z,2.75
2022-08-03T01:46:28.665Z,3.55
2022-08-03T01:48:56.533Z,2.05
2022-08-03T01:51:23.485Z,2.28
2022-08-03T01:53:55.139Z,2.20
2022-08-03T01:56:26.105Z,2.55
2022-08-03T01:58:55.524Z,2.65
2022-08-03T02:01:24.123Z,2.83
2022-08-03T02:03:59.982Z,7.88
2022-08-03T02:07:00.173Z,3.67
2022-08-03T02:09:20.935Z,2.53
2022-08-03T02:11:48.976Z,4.38
2022-08-03T02:14:16.865Z,2.33
2022-08-03T02:16:46.009Z,3.22
2022-08-03T02:19:14.675Z,3.20
2022-08-03T02:21:56.486Z,3.10
2022-08-03T02:24:28.979Z,2.45
2022-08-03T02:26:57.224Z,3.95
2022-08-03T02:29:39.606Z,3.78
2022-08-03T02:32:12.585Z,3.53
2022-08-03T02:34:41.973Z,3.38
2022-08-03T02:37:10.419Z,3.40
2022-08-03T02:39:39.467Z,3.67
2022-08-03T02:42:08.696Z,3.78
2022-08-03T02:44:37.661Z,2.33
2022-08-03T02:47:09.647Z,2.70
2022-08-03T02:49:49.847Z,3.08
2022-08-03T02:52:20.730Z,4.85
2022-08-03T02:54:51.333Z,3.25
2022-08-03T02:57:21.051Z,4.78
2022-08-03T02:59:48.968Z,2.95
2022-08-03T03:02:18.435Z,3.75
2022-08-03T03:05:51.448Z,2.88
2022-08-03T03:07:51.256Z,2.80
2022-08-03T03:10:22.189Z,3.10
2022-08-03T03:12:54.358Z,2.28
2022-08-03T03:15:22.207Z,4.90
2022-08-03T03:17:51.770Z,3.42
2022-08-03T03:20:29.370Z,5.45
2022-08-03T03:23:00.963Z,5.45
2022-08-03T03:25:31.832Z,5.38
2022-08-03T03:28:02.915Z,5.80
2022-08-03T03:30:30.445Z,5.47
2022-08-03T03:32:58.949Z,2.72
2022-08-03T03:35:27.218Z,6.45
2022-08-03T03:37:54.165Z,7.05
2022-08-03T03:40:22.417Z,3.63
2022-08-03T03:42:50.458Z,5.82
2022-08-03T03:45:17.876Z,3.80
2022-08-03T03:47:44.937Z,6.95
2022-08-03T03:50:12.625Z,4.82
2022-08-03T03:52:39.583Z,4.07
2022-08-03T03:55:07.129Z,4.43
2022-08-03T03:57:34.711Z,4.78
2022-08-03T04:00:01.615Z,3.20
2022-08-03T04:02:28.465Z,3.70
2022-08-03T04:05:14.064Z,2.65
2022-08-03T04:08:16.818Z,3.35
2022-08-03T04:11:00.497Z,2.88
2022-08-03T04:13:36.507Z,3.58
2022-08-03T04:16:04.542Z,2.83
2022-08-03T04:18:33.984Z,3.72
2022-08-03T04:21:05.678Z,2.88
2022-08-03T04:23:35.648Z,4.03
2022-08-03T04:26:04.309Z,4.18
2022-08-03T04:28:33.455Z,3.50
2022-08-03T04:31:02.387Z,4.30
2022-08-03T04:33:32.473Z,3.38
2022-08-03T04:36:03.450Z,4.28
2022-08-03T04:38:36.718Z,6.30
2022-08-03T04:41:04.952Z,3.90
2022-08-03T04:43:34.161Z,4.95
2022-08-03T04:46:02.915Z,4.00
2022-08-03T04:48:29.905Z,4.13
2022-08-03T04:50:57.141Z,4.45
2022-08-03T04:53:24.225Z,6.15
2022-08-03T04:55:51.138Z,5.30
2022-08-03T04:58:17.946Z,4.93
2022-08-03T05:00:45.768Z,6.13
2022-08-03T05:03:23.485Z,4.57
2022-08-03T05:05:52.943Z,5.00
2022-08-03T05:08:27.788Z,4.10
2022-08-03T05:10:55.800Z,3.85
2022-08-03T05:13:26.222Z,5.97
2022-08-03T05:15:53.090Z,4.35
2022-08-03T05:18:20.191Z,4.57
2022-08-03T05:20:47.283Z,3.60
2022-08-03T05:23:14.122Z,3.95
2022-08-03T05:25:41.084Z,4.35
2022-08-03T05:28:16.793Z,6.00
2022-08-03T05:30:43.646Z,6.28
2022-08-03T05:33:13.745Z,4.47
2022-08-03T05:36:10.100Z,4.13
2022-08-03T05:38:44.640Z,4.93
2022-08-03T05:41:22.327Z,6.20
2022-08-03T05:43:54.585Z,4.15
2022-08-03T05:46:26.163Z,4.65
2022-08-03T05:48:55.427Z,4.43
2022-08-03T05:51:27.737Z,5.85
2022-08-03T05:53:54.615Z,7.13
2022-08-03T05:56:25.363Z,3.20
2022-08-03T05:58:53.340Z,3.40
2022-08-03T06:01:24.233Z,4.90
2022-08-03T06:04:02.851Z,3.97
2022-08-03T06:06:32.327Z,4.57
2022-08-03T06:08:59.379Z,7.50
2022-08-03T06:11:26.339Z,6.03
2022-08-03T06:13:53.137Z,3.45
2022-08-03T06:16:19.939Z,4.43
2022-08-03T06:18:46.793Z,4.93
2022-08-03T06:21:15.431Z,4.32
2022-08-03T06:23:54.553Z,3.90
2022-08-03T06:26:26.718Z,4.93
2022-08-03T06:28:54.924Z,4.95
2022-08-03T06:31:32.294Z,5.45
2022-08-03T06:34:34.303Z,4.38
2022-08-03T06:36:50.987Z,7.15
2022-08-03T06:39:19.582Z,9.18
2022-08-03T06:41:46.510Z,5.78
2022-08-03T06:44:13.504Z,5.75
2022-08-03T06:46:40.660Z,5.10
2022-08-03T06:49:07.967Z,5.18
2022-08-03T06:52:04.086Z,4.00
2022-08-03T06:54:24.882Z,4.05
2022-08-03T06:56:52.151Z,5.57
2022-08-03T07:00:09.730Z,4.75
2022-08-03T07:02:05.814Z,4.30
2022-08-03T07:04:33.456Z,4.82
2022-08-03T07:09:56.662Z,5.05
2022-08-03T07:12:52.816Z,5.38
2022-08-03T07:15:54.373Z,5.05
2022-08-03T07:18:17.196Z,6.75
2022-08-03T07:20:54.992Z,4.50
2022-08-03T07:23:21.810Z,4.60
2022-08-03T07:25:48.606Z,4.32
2022-08-03T07:28:15.482Z,6.05
2022-08-03T07:30:42.339Z,5.10
2022-08-03T07:33:17.790Z,7.43
2022-08-03T07:35:44.755Z,5.10
2022-08-03T07:38:11.559Z,5.40
2022-08-03T07:40:44.411Z,4.97
2022-08-03T07:43:13.043Z,8.50
2022-08-03T07:45:39.873Z,4.40
2022-08-03T07:48:12.000Z,6.25
2022-08-03T07:50:39.283Z,5.38
2022-08-03T07:53:06.178Z,5.78
2022-08-03T07:55:33.106Z,4.88
2022-08-03T07:58:05.069Z,8.10
2022-08-03T08:00:32.201Z,4.13
2022-08-03T08:02:59.088Z,4.43
2022-08-03T08:05:26.253Z,4.85
2022-08-03T08:07:53.364Z,6.18
2022-08-03T08:10:20.437Z,5.32
2022-08-03T08:12:48.312Z,8.15
2022-08-03T08:15:15.229Z,4.18
2022-08-03T08:17:51.124Z,6.15
2022-08-03T08:20:30.702Z,6.90
2022-08-03T08:23:19.904Z,4.43
2022-08-03T08:25:54.337Z,4.63
2022-08-03T08:28:32.164Z,4.60
2022-08-03T08:31:00.686Z,6.45
2022-08-03T08:33:37.385Z,5.18
2022-08-03T08:36:15.552Z,4.10
2022-08-03T08:38:44.740Z,4.97
2022-08-03T08:41:13.438Z,5.07
2022-08-03T08:43:40.667Z,6.07
2022-08-03T08:46:11.887Z,6.20
2022-08-03T08:48:42.141Z,5.60
2022-08-03T08:51:09.854Z,6.53
2022-08-03T08:53:38.415Z,5.03
2022-08-03T08:56:07.031Z,6.53
2022-08-03T08:58:38.193Z,7.15
2022-08-03T09:01:05.868Z,8.13
2022-08-03T09:03:36.095Z,4.05
2022-08-03T09:06:04.148Z,8.15
2022-08-03T09:08:32.486Z,6.30
2022-08-03T09:10:59.907Z,8.73
2022-08-03T09:13:26.805Z,4.38
2022-08-03T09:16:14.377Z,4.95
2022-08-03T09:18:47.028Z,4.35
2022-08-03T09:21:35.740Z,4.83
2022-08-03T09:24:08.447Z,3.35
2022-08-03T09:26:40.112Z,3.65
2022-08-03T09:29:14.417Z,5.35
2022-08-03T09:31:46.850Z,4.47
2022-08-03T09:34:16.839Z,3.90
2022-08-03T09:36:50.839Z,5.72
2022-08-03T09:39:40.557Z,4.35
2022-08-03T09:42:18.863Z,4.38
2022-08-03T09:44:52.531Z,4.15
2022-08-03T09:47:33.100Z,4.07
2022-08-03T09:50:02.383Z,6.22
2022-08-03T09:52:49.125Z,6.30
2022-08-03T09:56:30.946Z,4.65
2022-08-03T09:58:10.442Z,4.80
2022-08-03T10:01:01.534Z,4.40
2022-08-03T10:03:30.452Z,3.53
2022-08-03T10:06:00.062Z,5.38
2022-08-03T10:08:27.513Z,3.53
2022-08-03T10:10:54.762Z,3.65
2022-08-03T10:13:23.556Z,4.00
2022-08-03T10:16:21.915Z,3.47
2022-08-03T10:18:37.717Z,5.38
2022-08-03T10:21:08.069Z,4.00
2022-08-03T10:23:37.900Z,4.70
2022-08-03T10:26:07.846Z,3.85
2022-08-03T10:28:45.831Z,3.45
2022-08-03T10:31:14.203Z,3.42
2022-08-03T10:33:52.861Z,3.60
2022-08-03T10:36:24.158Z,8.15
2022-08-03T10:38:53.797Z,3.35
2022-08-03T10:41:21.954Z,6.18
2022-08-03T10:43:59.129Z,4.55
2022-08-03T10:46:27.289Z,4.18
2022-08-03T10:48:56.583Z,4.38
2022-08-03T10:51:24.359Z,4.15
2022-08-03T10:53:54.644Z,3.60
2022-08-03T10:56:54.366Z,3.60
2022-08-03T10:59:46.611Z,3.83
2022-08-03T11:02:15.108Z,3.50
2022-08-03T11:04:42.910Z,7.15
2022-08-03T11:07:21.461Z,3.42
2022-08-03T11:09:57.349Z,3.80
2022-08-03T11:12:30.326Z,2.80
2022-08-03T11:15:01.818Z,3.53
2022-08-03T11:17:29.044Z,4.47
2022-08-03T11:19:57.678Z,4.47
2022-08-03T11:22:25.630Z,7.32
2022-08-03T11:24:54.378Z,3.05
2022-08-03T11:27:23.401Z,3.22
2022-08-03T11:30:10.636Z,4.00
2022-08-03T11:32:40.591Z,4.90
2022-08-03T11:35:14.805Z,3.08
2022-08-03T11:38:08.477Z,4.50
2022-08-03T11:40:47.489Z,3.45
2022-08-03T11:43:26.715Z,5.55
2022-08-03T11:46:08.021Z,3.10
2022-08-03T11:48:40.293Z,4.97
2022-08-03T11:51:19.236Z,2.10
2022-08-03T11:53:47.890Z,3.03
2022-08-03T11:56:14.802Z,8.05
2022-08-03T11:59:10.994Z,3.78
2022-08-03T12:01:41.829Z,2.50
2022-08-03T12:04:08.806Z,8.63
2022-08-03T12:06:54.936Z,2.55
2022-08-03T12:09:22.243Z,2.78
2022-08-03T12:11:59.401Z,3.88
2022-08-03T12:14:49.019Z,3.00
2022-08-03T12:17:16.109Z,2.20
2022-08-03T12:19:44.061Z,2.63
2022-08-03T12:22:11.049Z,2.47
2022-08-03T12:24:42.554Z,2.17
2022-08-03T12:27:09.500Z,2.55
2022-08-03T12:29:36.652Z,2.40
2022-08-03T12:32:03.638Z,2.25
2022-08-03T12:34:47.775Z,4.72
2022-08-03T12:37:19.048Z,2.25
2022-08-03T12:40:07.806Z,2.95
2022-08-03T12:42:38.955Z,2.08
2022-08-03T12:45:26.971Z,3.58
2022-08-03T12:47:56.098Z,4.03
2022-08-03T12:50:34.808Z,3.45
2022-08-03T12:53:05.242Z,2.88
2022-08-03T12:55:57.739Z,2.63
2022-08-03T12:58:36.405Z,3.88
2022-08-03T13:01:09.604Z,2.38
2022-08-03T13:03:43.378Z,2.30
2022-08-03T13:06:17.327Z,3.78
2022-08-03T13:08:46.051Z,3.00
2022-08-03T13:11:55.751Z,2.78
2022-08-03T13:14:20.653Z,5.28
2022-08-03T13:16:49.176Z,2.13
2022-08-03T13:19:16.365Z,2.42
2022-08-03T13:22:01.367Z,3.53
2022-08-03T13:24:31.714Z,2.95
2022-08-03T13:26:59.411Z,2.20
2022-08-03T13:29:26.335Z,2.03
2022-08-03T13:31:53.292Z,2.10
2022-08-03T13:34:23.579Z,4.53
2022-08-03T13:37:09.274Z,3.03
2022-08-03T13:39:57.545Z,2.65
2022-08-03T13:42:24.000Z,1.90
2022-08-03T13:44:50.914Z,2.10
2022-08-03T13:47:18.068Z,1.90
2022-08-03T13:49:59.967Z,3.60
2022-08-03T13:52:30.532Z,1.92
2022-08-03T13:54:57.396Z,3.58
2022-08-03T13:58:06.154Z,2.03
2022-08-03T14:00:12.164Z,1.83
2022-08-03T14:02:39.119Z,3.58
2022-08-03T14:05:06.158Z,2.40
2022-08-03T14:07:33.003Z,2.65
2022-08-03T14:10:01.645Z,2.00
2022-08-03T14:12:28.780Z,2.10
2022-08-03T14:14:58.296Z,2.28
2022-08-03T14:17:28.034Z,4.10
2022-08-03T14:20:37.497Z,2.38
2022-08-03T14:22:57.008Z,3.03
2022-08-03T14:25:23.875Z,4.32
2022-08-03T14:27:50.817Z,3.28
2022-08-03T14:30:17.893Z,2.08
2022-08-03T14:32:44.701Z,2.25
2022-08-03T14:35:11.562Z,2.70
2022-08-03T14:37:38.525Z,2.78
2022-08-03T14:40:06.422Z,2.53
2022-08-03T14:42:33.381Z,2.53
2022-08-03T14:45:03.607Z,4.03
2022-08-03T14:47:34.487Z,2.30
2022-08-03T14:50:36.396Z,4.93
2022-08-03T14:53:07.888Z,2.67
2022-08-03T14:55:39.742Z,2.20
2022-08-03T14:58:19.886Z,2.17
2022-08-03T15:00:49.725Z,2.53
2022-08-03T15:03:17.637Z,2.30
2022-08-03T15:05:44.761Z,2.53
2022-08-03T15:08:11.645Z,2.95
2022-08-03T15:10:40.594Z,2.33
2022-08-03T15:13:12.105Z,2.65
2022-08-03T15:15:39.169Z,2.50
2022-08-03T15:18:06.699Z,4.47
2022-08-03T15:20:44.394Z,2.15
2022-08-03T15:23:12.725Z,2.47
2022-08-03T15:26:03.116Z,2.38
2022-08-03T15:28:26.579Z,5.18
2022-08-03T15:30:53.772Z,3.70
2022-08-03T15:33:20.762Z,3.28
2022-08-03T15:35:47.962Z,3.85
2022-08-03T15:38:15.493Z,1.98
2022-08-03T15:40:42.386Z,3.72
2022-08-03T15:43:09.314Z,4.13
2022-08-03T15:45:40.617Z,3.67
2022-08-03T15:48:08.925Z,4.10
2022-08-03T15:50:35.879Z,2.10
2022-08-03T15:53:02.865Z,2.42
2022-08-03T15:55:31.484Z,2.45
2022-08-03T15:59:03.693Z,2.40
2022-08-03T16:00:45.756Z,3.90
2022-08-03T16:03:12.691Z,4.38
2022-08-03T16:05:39.551Z,2.35
2022-08-03T16:08:10.403Z,2.03
2022-08-03T16:10:40.860Z,4.03
2022-08-03T16:13:08.099Z,2.25
2022-08-03T16:15:38.499Z,3.78
2022-08-03T16:18:06.706Z,2.50
2022-08-03T16:20:35.310Z,4.05
2022-08-03T16:23:10.530Z,2.60
2022-08-03T16:25:44.473Z,4.97
2022-08-03T16:28:17.301Z,4.00
2022-08-03T16:30:46.058Z,2.30
2022-08-03T16:33:17.280Z,4.10
2022-08-03T16:35:45.259Z,2.33
2022-08-03T16:38:18.158Z,2.40
2022-08-03T16:40:47.222Z,4.97
2022-08-03T16:43:18.734Z,3.65
2022-08-03T16:45:47.313Z,2.58
2022-08-03T16:48:15.366Z,3.55
2022-08-03T16:50:42.324Z,3.30
2022-08-03T16:53:15.570Z,6.35
2022-08-03T16:55:53.161Z,3.85
2022-08-03T16:58:41.333Z,2.88
2022-08-03T17:01:24.379Z,3.90
2022-08-03T17:04:03.327Z,2.10
2022-08-03T17:06:38.009Z,4.10
2022-08-03T17:09:18.191Z,4.28
2022-08-03T17:11:47.741Z,3.15
2022-08-03T17:14:17.324Z,2.33
2022-08-03T17:16:52.586Z,8.18
2022-08-03T17:19:26.306Z,3.97
2022-08-03T17:22:01.688Z,4.82
2022-08-03T17:24:44.683Z,3.10
2022-08-03T17:28:42.420Z,3.33
2022-08-03T17:30:12.175Z,2.88
2022-08-03T17:32:42.730Z,2.08
2022-08-03T17:35:20.860Z,2.17
2022-08-03T17:37:57.677Z,6.07
2022-08-03T17:40:25.742Z,2.20
2022-08-03T17:42:53.428Z,3.30
2022-08-03T17:45:20.613Z,2.42
2022-08-03T17:47:57.747Z,4.32
2022-08-03T17:50:33.880Z,3.13
2022-08-03T17:53:14.404Z,2.60
2022-08-03T17:56:04.808Z,3.10
2022-08-03T17:58:41.484Z,4.07
2022-08-03T18:02:02.570Z,2.80
2022-08-03T18:04:30.323Z,3.22
2022-08-03T18:06:59.605Z,2.20
2022-08-03T18:10:03.276Z,2.72
2022-08-03T18:12:27.241Z,2.83
2022-08-03T18:15:08.419Z,2.10
2022-08-03T18:17:55.236Z,2.38
2022-08-03T18:20:32.871Z,2.55
2022-08-03T18:23:06.328Z,3.97
2022-08-03T18:25:42.912Z,4.65
2022-08-03T18:28:14.608Z,2.85
2022-08-03T18:30:53.255Z,4.00
2022-08-03T18:34:19.728Z,4.20
2022-08-03T18:39:05.674Z,4.43
2022-08-03T18:41:35.036Z,2.72
2022-08-03T18:44:06.731Z,4.60
2022-08-03T18:47:15.705Z,2.75
2022-08-03T18:50:12.589Z,3.13
2022-08-03T18:52:57.752Z,6.00
2022-08-03T18:55:33.373Z,3.10
2022-08-03T18:58:17.747Z,2.88
2022-08-03T19:02:01.069Z,3.63
2022-08-03T19:04:24.259Z,2.55
2022-08-03T19:06:58.873Z,3.10
2022-08-03T19:09:46.936Z,3.28
2022-08-03T19:12:39.582Z,4.38
2022-08-03T19:15:13.022Z,4.10
2022-08-03T19:20:26.164Z,3.40
2022-08-03T19:22:55.188Z,7.15
2022-08-03T19:25:34.694Z,4.03
2022-08-03T19:28:06.015Z,5.00
2022-08-03T19:30:40.395Z,4.07
2022-08-03T19:33:15.093Z,5.25
2022-08-03T19:35:55.655Z,5.50
2022-08-03T19:38:28.415Z,6.25
2022-08-03T19:41:14.730Z,4.90
2022-08-03T19:43:57.790Z,5.35
2022-08-03T19:46:30.474Z,30.55
2022-08-03T19:49:15.162Z,26.70
2022-08-03T19:52:01.026Z,31.50
2022-08-03T19:54:36.811Z,20.33
2022-08-03T19:57:18.364Z,16.73
2022-08-03T19:59:49.917Z,18.08
2022-08-03T20:02:26.088Z,14.60
2022-08-03T20:04:56.973Z,22.70
2022-08-03T20:07:25.968Z,17.55
2022-08-03T20:09:56.729Z,13.18
2022-08-03T20:12:27.387Z,10.40
2022-08-03T20:14:59.169Z,8.85
2022-08-03T20:17:54.746Z,11.77
2022-08-03T20:20:21.083Z,7.75
2022-08-03T20:22:54.844Z,9.63
2022-08-03T20:25:38.125Z,8.80
2022-08-03T20:28:15.133Z,6.28
2022-08-03T20:30:44.419Z,7.35
2022-08-03T20:33:18.729Z,11.25
2022-08-03T20:35:49.280Z,6.55
2022-08-03T20:38:18.442Z,6.28
2022-08-03T20:40:46.595Z,7.05
2022-08-03T20:43:14.167Z,4.40
2022-08-03T20:45:59.850Z,6.75
2022-08-03T20:48:28.132Z,6.88
2022-08-03T20:50:56.549Z,5.63
2022-08-03T20:53:59.782Z,3.35
2022-08-03T20:56:10.388Z,4.13
2022-08-03T20:58:37.856Z,8.52
2022-08-03T21:01:09.127Z,6.80
2022-08-03T21:03:41.160Z,3.85
2022-08-03T21:06:27.639Z,3.70
2022-08-03T21:09:04.037Z,3.63
2022-08-03T21:11:43.161Z,3.60
2022-08-03T21:13:05.815Z,6.28
2022-08-03T21:14:38.092Z,6.47
2022-08-03T21:17:14.121Z,5.88
2022-08-03T21:19:52.103Z,4.18
2022-08-03T21:22:22.494Z,3.85
2022-08-03T21:24:55.843Z,6.03
2022-08-03T21:27:24.524Z,4.35
2022-08-03T21:29:53.025Z,6.55
2022-08-03T21:32:32.401Z,4.05
2022-08-03T21:35:01.021Z,4.40
2022-08-03T21:37:28.636Z,5.65
2022-08-03T21:39:56.276Z,3.60
2022-08-03T21:42:23.954Z,6.13
2022-08-03T21:44:52.085Z,7.45
2022-08-03T21:47:21.029Z,3.08
2022-08-03T21:50:07.081Z,4.47
2022-08-03T21:52:46.996Z,3.78
2022-08-03T21:55:20.700Z,4.32
2022-08-03T21:57:52.846Z,6.35
2022-08-03T22:00:21.642Z,3.03
2022-08-03T22:02:56.094Z,3.30
2022-08-03T22:05:42.688Z,3.38
2022-08-03T22:08:13.571Z,3.25
2022-08-03T22:10:43.101Z,4.40
2022-08-03T22:13:10.232Z,2.95
2022-08-03T22:15:37.269Z,3.38
2022-08-03T22:18:05.151Z,3.47
2022-08-03T22:20:32.258Z,3.20
2022-08-03T22:23:02.561Z,5.43
2022-08-03T22:25:31.923Z,3.65
2022-08-03T22:28:01.676Z,3.75
2022-08-03T22:30:29.177Z,4.57
2022-08-03T22:32:57.641Z,3.60
2022-08-03T22:35:26.134Z,4.43
2022-08-03T22:37:54.941Z,4.20
2022-08-03T22:40:22.160Z,2.97
2022-08-03T22:42:51.985Z,3.60
2022-08-03T22:46:06.818Z,5.18
2022-08-03T22:48:08.303Z,3.05
2022-08-03T22:50:35.450Z,4.55
2022-08-03T22:53:02.646Z,2.72
2022-08-03T22:55:29.649Z,4.25
2022-08-03T22:57:56.631Z,6.95
2022-08-03T23:00:24.216Z,3.97
2022-08-03T23:02:53.562Z,3.80
2022-08-03T23:06:00.840Z,3.30
2022-08-03T23:08:15.223Z,3.17
2022-08-03T23:10:46.670Z,3.90
2022-08-03T23:13:17.867Z,2.95
2022-08-03T23:15:55.000Z,3.83
2022-08-03T23:18:23.809Z,5.85
2022-08-03T23:20:52.781Z,3.20
2022-08-03T23:23:20.669Z,3.83
2022-08-03T23:25:49.624Z,3.33
2022-08-03T23:28:17.200Z,4.22
2022-08-03T23:30:45.307Z,5.57
2022-08-03T23:33:16.406Z,3.60
2022-08-03T23:36:29.005Z,3.10
2022-08-03T23:38:49.653Z,3.88
2022-08-03T23:41:18.626Z,5.28
2022-08-03T23:43:53.817Z,3.42
2022-08-03T23:46:22.616Z,4.65
2022-08-03T23:48:51.204Z,3.53
2022-08-03T23:51:30.604Z,7.40
2022-08-03T23:54:18.171Z,3.42
2022-08-03T23:56:59.917Z,3.58
2022-08-03T23:59:40.273Z,3.78
